Time;durP1;ratioP1;P1;durP2;ratioP2;P2;SDS_P1;SDS_P2;PMS_P1;PMS_P2;Temp;Humidity;BMP_temperature;BMP_pressure;BME280_temperature;BME280_humidity;BME280_pressure;Samples;Min_cycle;Max_cycle;Signal;HPM_P1;HPM_P2
2024/01/10 00:01:02;;;;;;;23.02;20.95;;;-6.10;99.90;;;;;;12325214;28;20047;-77
2024/01/10 00:07:05;;;;;;;26.27;24.08;;;-6.20;99.90;;;;;;12335833;28;20059;-78
2024/01/10 00:13:06;;;;;;;27.38;25.38;;;-6.20;99.90;;;;;;12319985;28;20402;-78
2024/01/10 00:19:08;;;;;;;29.88;27.48;;;-6.40;99.90;;;;;;12332915;28;20431;-78
2024/01/10 00:25:10;;;;;;;27.25;24.92;;;-6.40;99.90;;;;;;12312345;28;20103;-77
2024/01/10 00:31:13;;;;;;;26.25;24.27;;;-6.40;99.90;;;;;;12331456;28;20059;-77
2024/01/10 00:37:15;;;;;;;25.38;22.85;;;-6.30;99.90;;;;;;12316372;28;20106;-78
2024/01/10 00:43:17;;;;;;;28.15;26.17;;;-6.30;99.90;;;;;;12328408;28;20051;-77
2024/01/10 00:49:19;;;;;;;26.42;24.58;;;-6.40;99.90;;;;;;12342297;28;20051;-77
2024/01/10 00:55:21;;;;;;;27.45;25.45;;;-6.40;99.90;;;;;;12308919;28;20050;-77
2024/01/10 01:01:24;;;;;;;24.85;22.55;;;-6.50;99.90;;;;;;12327412;28;20050;-80
2024/01/10 01:07:27;;;;;;;26.85;24.45;;;-6.40;99.90;;;;;;12315589;28;20063;-78
2024/01/10 01:13:28;;;;;;;26.58;24.35;;;-6.40;99.90;;;;;;12323523;28;20066;-77
2024/01/10 01:19:30;;;;;;;24.52;22.73;;;-6.40;99.90;;;;;;12343508;28;20054;-77
2024/01/10 01:25:33;;;;;;;28.60;26.65;;;-6.40;99.90;;;;;;12324697;28;20040;-78
2024/01/10 01:31:35;;;;;;;31.73;29.35;;;-6.50;99.90;;;;;;12333389;28;20056;-77
2024/01/10 01:37:37;;;;;;;35.10;32.60;;;-6.70;99.90;;;;;;12315982;28;20051;-77
2024/01/10 01:43:39;;;;;;;34.55;31.83;;;-6.80;99.90;;;;;;12314129;28;20522;-78
2024/01/10 01:49:42;;;;;;;31.05;28.45;;;-6.80;99.90;;;;;;12315626;28;20094;-78
2024/01/10 01:55:45;;;;;;;32.53;29.98;;;-6.80;99.90;;;;;;12329150;28;20055;-78
2024/01/10 02:01:47;;;;;;;30.60;28.15;;;-6.90;99.90;;;;;;12324266;28;20046;-78
2024/01/10 02:07:49;;;;;;;30.23;27.65;;;-6.80;99.90;;;;;;12343068;28;20062;-77
2024/01/10 02:13:54;;;;;;;25.80;23.40;;;-6.70;99.90;;;;;;12357918;28;20415;-77
2024/01/10 02:20:09;;;;;;;27.83;25.45;;;-6.50;99.90;;;;;;12336398;28;20111;-78
2024/01/10 02:26:14;;;;;;;24.30;22.02;;;-6.40;99.90;;;;;;12350206;28;20047;-78
2024/01/10 02:32:16;;;;;;;26.60;24.60;;;-6.20;99.90;;;;;;12339803;28;20051;-77
2024/01/10 02:38:21;;;;;;;28.02;25.48;;;-6.10;99.90;;;;;;12330515;28;20053;-78
2024/01/10 02:44:23;;;;;;;25.20;23.13;;;-6.10;99.90;;;;;;12336878;28;20050;-77
2024/01/10 02:50:25;;;;;;;27.58;25.42;;;-6.10;99.90;;;;;;12357750;28;20047;-78
2024/01/10 02:56:27;;;;;;;25.63;23.58;;;-6.10;99.90;;;;;;12384043;28;20069;-78
2024/01/10 03:02:29;;;;;;;30.88;28.20;;;-6.20;99.90;;;;;;12373369;28;20077;-78
2024/01/10 03:08:31;;;;;;;28.73;26.30;;;-6.30;99.90;;;;;;12387716;28;20055;-79
2024/01/10 03:14:34;;;;;;;30.27;27.83;;;-6.40;99.90;;;;;;12374742;28;20053;-78
2024/01/10 03:20:36;;;;;;;32.78;30.25;;;-6.60;99.90;;;;;;12375572;28;20069;-77
2024/01/10 03:26:38;;;;;;;34.50;31.70;;;-6.80;99.90;;;;;;12382405;28;20050;-78
2024/01/10 03:32:40;;;;;;;34.33;31.88;;;-6.80;99.90;;;;;;12354823;28;20048;-78
2024/01/10 03:38:43;;;;;;;32.47;29.80;;;-6.90;99.90;;;;;;12333612;28;20543;-76
2024/01/10 03:44:44;;;;;;;30.23;27.92;;;-6.80;99.90;;;;;;12337441;28;20047;-79
2024/01/10 03:50:46;;;;;;;30.52;28.08;;;-6.80;99.90;;;;;;12309932;28;20055;-77
2024/01/10 03:56:48;;;;;;;33.35;30.23;;;-6.80;99.90;;;;;;12319423;28;20057;-77
2024/01/10 04:02:50;;;;;;;32.30;29.88;;;-6.70;99.90;;;;;;12358490;28;20054;-77
2024/01/10 04:08:53;;;;;;;36.60;33.90;;;-6.70;99.90;;;;;;12330311;28;20046;-78
2024/01/10 04:14:55;;;;;;;35.58;33.30;;;-6.70;99.90;;;;;;12326826;28;20403;-78
2024/01/10 04:20:57;;;;;;;35.20;32.53;;;-6.80;99.90;;;;;;12311416;28;20047;-77
2024/01/10 04:26:59;;;;;;;37.92;35.13;;;-6.80;99.90;;;;;;12306237;28;20062;-78
2024/01/10 04:33:01;;;;;;;42.90;40.03;;;-6.90;99.90;;;;;;12366722;28;20050;-78
2024/01/10 04:39:03;;;;;;;41.92;39.03;;;-7.00;99.90;;;;;;12323127;28;20061;-78
2024/01/10 04:45:07;;;;;;;45.90;42.90;;;-6.90;99.90;;;;;;12305980;28;20096;-78
2024/01/10 04:51:09;;;;;;;52.00;48.42;;;-7.00;99.90;;;;;;12344088;28;20055;-78
2024/01/10 04:57:11;;;;;;;58.72;54.75;;;-7.10;99.90;;;;;;12320272;28;20466;-79
2024/01/10 05:03:13;;;;;;;59.88;55.72;;;-7.10;99.90;;;;;;12315336;28;20066;-77
2024/01/10 05:09:16;;;;;;;63.55;59.33;;;-7.10;99.90;;;;;;12315626;28;20058;-79
2024/01/10 05:15:18;;;;;;;68.55;64.03;;;-7.20;99.90;;;;;;12325230;28;20055;-80
2024/01/10 05:21:21;;;;;;;72.90;67.90;;;-7.20;99.90;;;;;;12302653;28;20053;-79
2024/01/10 05:27:23;;;;;;;74.13;69.10;;;-7.20;99.90;;;;;;12299257;28;20107;-78
2024/01/10 05:33:25;;;;;;;75.00;70.35;;;-7.20;99.90;;;;;;12325257;28;20059;-78
2024/01/10 05:39:27;;;;;;;70.95;66.15;;;-7.40;99.90;;;;;;12334607;28;20053;-77
2024/01/10 05:45:30;;;;;;;70.75;66.03;;;-7.30;99.90;;;;;;12318141;28;20131;-78
2024/01/10 05:51:32;;;;;;;74.10;69.45;;;-7.20;99.90;;;;;;12321293;28;20054;-77
2024/01/10 05:57:35;;;;;;;72.65;67.72;;;-7.30;99.90;;;;;;12316349;28;20074;-78
2024/01/10 06:03:38;;;;;;;73.00;68.10;;;-7.20;99.90;;;;;;12382590;28;20051;-78
2024/01/10 06:09:41;;;;;;;71.60;67.22;;;-7.40;99.90;;;;;;12312556;28;20051;-78
2024/01/10 06:15:43;;;;;;;70.30;65.78;;;-7.40;99.90;;;;;;12310957;28;20053;-78
2024/01/10 06:21:44;;;;;;;62.90;58.63;;;-7.30;99.90;;;;;;12310073;28;20046;-77
2024/01/10 06:27:46;;;;;;;66.93;62.35;;;-7.30;99.90;;;;;;12311098;28;20411;-77
2024/01/10 06:33:49;;;;;;;65.97;61.15;;;-7.30;99.90;;;;;;12306202;28;20253;-78
2024/01/10 06:39:51;;;;;;;69.82;64.82;;;-7.20;99.90;;;;;;12330816;28;20077;-77
2024/01/10 06:45:53;;;;;;;66.97;62.33;;;-7.20;99.90;;;;;;12310406;28;20058;-77
2024/01/10 06:51:55;;;;;;;73.25;68.28;;;-7.20;99.90;;;;;;12337921;28;20051;-78
2024/01/10 06:57:57;;;;;;;77.65;72.30;;;-7.30;99.90;;;;;;12381841;28;20058;-78
2024/01/10 07:03:59;;;;;;;69.20;63.75;;;-7.40;99.90;;;;;;12364632;28;20055;-78
2024/01/10 07:10:04;;;;;;;63.30;58.97;;;-7.10;99.90;;;;;;12341797;28;20047;-78
2024/01/10 07:16:07;;;;;;;60.00;55.17;;;-7.00;99.90;;;;;;12334691;28;20125;-77
2024/01/10 07:22:10;;;;;;;65.82;61.15;;;-6.90;99.90;;;;;;12330165;28;20043;-78
2024/01/10 07:28:12;;;;;;;74.50;69.90;;;-6.80;99.90;;;;;;12310244;28;20418;-77
2024/01/10 07:34:14;;;;;;;64.80;59.78;;;-7.10;99.90;;;;;;12315423;28;20304;-77
2024/01/10 07:40:16;;;;;;;64.47;59.88;;;-7.00;99.90;;;;;;12323195;28;20055;-79
2024/01/10 07:46:18;;;;;;;62.35;57.90;;;-6.90;99.90;;;;;;12312326;28;20058;-78
2024/01/10 07:52:21;;;;;;;63.45;58.72;;;-6.80;99.90;;;;;;12310578;28;20055;-78
2024/01/10 07:58:26;;;;;;;59.95;55.35;;;-6.80;99.90;;;;;;12329335;28;20167;-77
2024/01/10 08:04:28;;;;;;;59.10;54.75;;;-6.80;99.90;;;;;;12330438;28;20054;-77
2024/01/10 08:10:30;;;;;;;64.57;60.30;;;-6.80;99.90;;;;;;12318551;28;20101;-78
2024/01/10 08:16:32;;;;;;;61.33;56.92;;;-6.80;99.90;;;;;;12328349;28;20051;-78
2024/01/10 08:22:34;;;;;;;57.45;53.10;;;-6.60;99.90;;;;;;12319837;28;20070;-78
2024/01/10 08:28:36;;;;;;;61.80;57.25;;;-6.50;99.90;;;;;;12332008;28;20045;-77
2024/01/10 08:34:38;;;;;;;64.88;60.38;;;-6.50;99.90;;;;;;12329094;28;20054;-79
2024/01/10 08:40:40;;;;;;;61.17;57.20;;;-6.50;99.90;;;;;;12326845;28;20046;-78
2024/01/10 08:46:42;;;;;;;62.85;58.58;;;-6.30;99.90;;;;;;12312730;28;20093;-77
2024/01/10 08:52:44;;;;;;;64.35;59.78;;;-6.30;99.90;;;;;;12326830;28;20059;-77
2024/01/10 08:58:47;;;;;;;64.95;60.35;;;-6.20;99.90;;;;;;12340917;28;20046;-77
2024/01/10 09:04:50;;;;;;;64.43;60.00;;;-6.20;99.90;;;;;;12336306;28;20046;-77
2024/01/10 09:10:52;;;;;;;66.63;61.95;;;-6.10;99.90;;;;;;12314801;28;20051;-79
2024/01/10 09:16:54;;;;;;;61.67;57.47;;;-6.00;99.90;;;;;;12332614;28;20059;-77
2024/01/10 09:22:56;;;;;;;64.10;59.22;;;-5.90;99.90;;;;;;12326201;28;20046;-77
2024/01/10 09:28:58;;;;;;;64.15;59.42;;;-5.80;99.90;;;;;;12335395;28;20073;-78
2024/01/10 09:35:01;;;;;;;68.22;62.97;;;-5.70;99.90;;;;;;12345101;28;20107;-78
2024/01/10 09:41:04;;;;;;;68.90;64.10;;;-5.70;99.90;;;;;;12320369;28;20054;-78
2024/01/10 09:47:06;;;;;;;58.53;53.60;;;-5.40;99.90;;;;;;12330754;28;20050;-77
2024/01/10 09:53:18;;;;;;;61.53;57.10;;;-5.20;99.90;;;;;;12331187;28;20089;-78
2024/01/10 09:59:20;;;;;;;64.57;59.70;;;-5.20;99.90;;;;;;12340108;28;20062;-77
2024/01/10 10:05:23;;;;;;;60.72;56.45;;;-5.20;99.90;;;;;;12341220;28;20059;-81
2024/01/10 10:11:26;;;;;;;59.30;55.03;;;-5.10;99.90;;;;;;12312298;28;20137;-77
2024/01/10 10:17:28;;;;;;;56.47;52.20;;;-5.10;99.90;;;;;;12344477;28;20090;-78
2024/01/10 10:23:31;;;;;;;52.17;47.88;;;-4.80;99.90;;;;;;12325752;28;20054;-77
2024/01/10 10:29:33;;;;;;;51.05;46.72;;;-4.60;99.90;;;;;;12336368;28;20039;-77
2024/01/10 10:35:35;;;;;;;44.78;40.17;;;-4.30;99.90;;;;;;12338658;28;20051;-77
2024/01/10 10:41:43;;;;;;;51.50;47.45;;;-4.30;99.90;;;;;;12330351;28;20111;-78
2024/01/10 10:47:49;;;;;;;44.80;40.55;;;-4.10;99.90;;;;;;12322808;28;20050;-77
2024/01/10 10:53:52;;;;;;;41.35;37.67;;;-3.80;99.90;;;;;;12315409;28;20051;-77
2024/01/10 10:59:57;;;;;;;45.58;41.33;;;-3.80;99.90;;;;;;12340215;28;20085;-77
2024/01/10 11:06:00;;;;;;;43.83;39.35;;;-3.50;99.90;;;;;;12311572;28;20059;-78
2024/01/10 11:12:08;;;;;;;40.90;34.10;;;-3.40;99.90;;;;;;12320676;28;20055;-78
2024/01/10 11:18:22;;;;;;;38.90;34.83;;;-3.60;99.90;;;;;;12320730;28;20098;-77
2024/01/10 11:24:25;;;;;;;36.58;32.83;;;-3.30;99.90;;;;;;12327773;28;20086;-78
2024/01/10 11:30:39;;;;;;;40.78;36.63;;;-3.30;99.90;;;;;;12328141;28;20420;-79
2024/01/10 11:37:14;;;;;;;35.40;31.38;;;-3.30;99.90;;;;;;12328885;28;20054;-77
2024/01/10 11:43:16;;;;;;;34.33;29.52;;;-3.00;99.90;;;;;;12312090;28;20047;-78
2024/01/10 11:49:20;;;;;;;39.13;31.35;;;-2.90;99.90;;;;;;12299169;28;20511;-77
2024/01/10 11:55:47;;;;;;;34.25;28.17;;;-3.00;99.90;;;;;;12354039;28;20400;-78
2024/01/10 12:01:50;;;;;;;32.20;27.25;;;-3.10;99.90;;;;;;12314005;28;20488;-78
2024/01/10 12:07:52;;;;;;;33.50;27.38;;;-2.90;99.90;;;;;;12319101;28;20059;-78
2024/01/10 12:13:54;;;;;;;32.95;24.63;;;-2.90;99.90;;;;;;12324560;28;20055;-77
2024/01/10 12:19:56;;;;;;;30.00;24.83;;;-2.90;99.90;;;;;;12310474;28;20066;-78
2024/01/10 12:26:03;;;;;;;33.47;27.15;;;-2.70;99.90;;;;;;12322609;28;20039;-79
2024/01/10 12:32:07;;;;;;;36.40;32.38;;;-2.80;99.90;;;;;;12327524;28;20061;-77
2024/01/10 12:38:12;;;;;;;33.40;27.87;;;-2.70;99.90;;;;;;12327083;28;20438;-79
2024/01/10 12:44:14;;;;;;;39.78;32.88;;;-2.90;99.90;;;;;;12318382;28;20099;-78
2024/01/10 12:50:16;;;;;;;41.17;36.75;;;-2.70;99.90;;;;;;12338063;28;20060;-79
2024/01/10 12:56:19;;;;;;;43.50;38.97;;;-2.50;99.90;;;;;;12340090;28;20051;-77
2024/01/10 13:02:21;;;;;;;36.58;32.67;;;-2.40;99.90;;;;;;12315208;28;20051;-82
2024/01/10 13:08:23;;;;;;;38.95;32.45;;;-2.40;99.90;;;;;;12277012;28;1154693;-79
2024/01/10 13:14:25;;;;;;;35.80;30.73;;;-2.40;99.90;;;;;;12306083;28;20051;-79
2024/01/10 13:20:28;;;;;;;36.00;28.42;;;-2.40;99.90;;;;;;12316513;28;20502;-78
2024/01/10 13:26:30;;;;;;;39.13;31.85;;;-2.50;99.90;;;;;;12334554;28;20046;-79
2024/01/10 13:32:32;;;;;;;37.70;33.63;;;-2.50;99.90;;;;;;12331819;28;20189;-78
2024/01/10 13:38:34;;;;;;;41.08;32.17;;;-2.40;99.90;;;;;;12326165;28;20062;-78
2024/01/10 13:44:36;;;;;;;36.25;32.38;;;-2.50;99.90;;;;;;12320447;28;20130;-78
2024/01/10 13:50:39;;;;;;;38.80;33.53;;;-2.70;99.90;;;;;;12327296;28;20205;-79
2024/01/10 13:56:41;;;;;;;39.38;35.25;;;-2.60;99.90;;;;;;12328516;28;20428;-78
2024/01/10 14:02:43;;;;;;;42.53;37.75;;;-2.60;99.90;;;;;;12341710;28;20052;-79
2024/01/10 14:08:47;;;;;;;40.53;35.15;;;-2.70;99.90;;;;;;12335992;28;20046;-79
2024/01/10 14:14:50;;;;;;;40.05;32.60;;;-2.90;99.90;;;;;;12313795;28;20058;-79
2024/01/10 14:20:52;;;;;;;38.80;34.90;;;-2.90;99.90;;;;;;12358545;28;20052;-79
2024/01/10 14:26:54;;;;;;;39.92;35.65;;;-3.00;99.90;;;;;;12343404;28;20484;-80
2024/01/10 14:32:56;;;;;;;44.53;39.75;;;-3.00;99.90;;;;;;12340928;28;20043;-79
2024/01/10 14:38:59;;;;;;;42.10;37.58;;;-3.10;99.90;;;;;;12329015;28;20058;-79
2024/01/10 14:45:01;;;;;;;44.22;38.60;;;-3.20;99.90;;;;;;12348913;28;20043;-79
2024/01/10 14:51:06;;;;;;;40.95;36.08;;;-3.20;99.90;;;;;;12325000;28;20053;-79
2024/01/10 14:57:08;;;;;;;42.80;36.92;;;-3.40;99.90;;;;;;12329569;28;20047;-78
2024/01/10 15:03:10;;;;;;;39.60;34.95;;;-3.40;99.90;;;;;;12339032;28;20047;-78
2024/01/10 15:09:26;;;;;;;45.85;40.30;;;-3.50;99.90;;;;;;12364381;28;20051;-78
2024/01/10 15:15:28;;;;;;;42.83;37.58;;;-3.60;99.90;;;;;;12318047;28;20058;-81
2024/01/10 15:21:30;;;;;;;43.90;36.25;;;-3.70;99.90;;;;;;12332906;28;20051;-78
2024/01/10 15:27:32;;;;;;;43.83;36.67;;;-3.70;99.90;;;;;;12322027;28;20047;-79
2024/01/10 15:33:35;;;;;;;42.78;38.13;;;-3.80;99.90;;;;;;12317102;28;20077;-78
2024/01/10 15:39:40;;;;;;;43.20;38.35;;;-4.00;99.90;;;;;;12334308;28;20058;-80
2024/01/10 15:45:42;;;;;;;42.28;37.70;;;-4.20;99.90;;;;;;12321541;28;20094;-80
2024/01/10 15:51:44;;;;;;;47.88;43.38;;;-4.40;99.90;;;;;;12317733;28;20522;-79
2024/01/10 15:57:46;;;;;;;47.50;43.03;;;-4.60;99.90;;;;;;12316518;28;20557;-78
2024/01/10 16:03:49;;;;;;;49.28;44.35;;;-4.60;99.90;;;;;;12318846;28;20065;-79
2024/01/10 16:09:51;;;;;;;48.22;41.95;;;-4.70;99.90;;;;;;12359254;28;20118;-78
2024/01/10 16:15:55;;;;;;;44.15;39.72;;;-4.70;99.90;;;;;;12364601;28;20061;-78
2024/01/10 16:21:57;;;;;;;47.17;42.27;;;-4.70;99.90;;;;;;12337876;28;20047;-83
2024/01/10 16:27:59;;;;;;;42.72;37.78;;;-4.80;99.90;;;;;;12375650;28;20047;-78
2024/01/10 16:34:01;;;;;;;42.00;37.65;;;-4.70;99.90;;;;;;12362017;28;20047;-78
2024/01/10 16:40:04;;;;;;;46.53;36.72;;;-4.80;99.90;;;;;;12324105;28;20178;-78
2024/01/10 16:46:07;;;;;;;43.10;35.05;;;-4.80;99.90;;;;;;12309450;28;20407;-79
2024/01/10 16:52:09;;;;;;;40.60;34.78;;;-4.70;99.90;;;;;;12319534;28;20043;-77
2024/01/10 16:58:11;;;;;;;45.05;38.53;;;-4.70;99.90;;;;;;12333928;28;20069;-77
2024/01/10 17:04:13;;;;;;;40.15;35.85;;;-4.80;99.90;;;;;;12330203;28;20060;-77
2024/01/10 17:10:15;;;;;;;42.70;32.65;;;-4.90;99.90;;;;;;12313535;28;20051;-78
2024/01/10 17:16:17;;;;;;;45.30;34.17;;;-4.80;99.90;;;;;;12309963;28;20051;-78
2024/01/10 17:22:19;;;;;;;40.40;36.10;;;-4.80;99.90;;;;;;12325053;28;20399;-77
2024/01/10 17:28:22;;;;;;;40.83;36.42;;;-4.90;99.90;;;;;;12307306;28;20044;-78
2024/01/10 17:34:24;;;;;;;41.00;36.53;;;-4.90;99.90;;;;;;12367613;28;20119;-80
2024/01/10 17:40:26;;;;;;;39.50;35.55;;;-5.00;99.90;;;;;;12398964;28;20448;-80
2024/01/10 17:46:29;;;;;;;45.47;36.08;;;-5.10;99.90;;;;;;12382154;28;20033;-81
2024/01/10 17:52:30;;;;;;;46.90;38.17;;;-5.10;99.90;;;;;;12388095;28;20051;-82
2024/01/10 17:58:32;;;;;;;47.30;36.92;;;-5.10;99.90;;;;;;12422042;28;20046;-80
2024/01/10 18:04:34;;;;;;;44.45;36.53;;;-5.10;99.90;;;;;;12368275;28;20125;-81
2024/01/10 18:10:36;;;;;;;45.17;40.30;;;-5.40;99.90;;;;;;12306160;28;20062;-80
2024/01/10 18:16:38;;;;;;;57.28;39.88;;;-5.50;99.90;;;;;;12338802;28;20188;-79
2024/01/10 18:22:40;;;;;;;49.10;40.63;;;-5.60;99.90;;;;;;12330927;28;20955;-80
2024/01/10 18:28:42;;;;;;;44.33;39.33;;;-5.70;99.90;;;;;;12310648;28;20126;-80
2024/01/10 18:34:45;;;;;;;45.10;38.60;;;-5.70;99.90;;;;;;12334829;28;20047;-81
2024/01/10 18:40:47;;;;;;;43.50;38.60;;;-5.70;99.90;;;;;;12312628;28;20514;-80
2024/01/10 18:46:51;;;;;;;50.88;40.60;;;-5.70;99.90;;;;;;12330279;28;20055;-79
2024/01/10 18:52:55;;;;;;;57.30;43.73;;;-5.80;99.90;;;;;;12312334;28;20050;-80
2024/01/10 18:58:57;;;;;;;48.03;36.75;;;-5.80;99.90;;;;;;12319021;28;20051;-80
2024/01/10 19:04:59;;;;;;;44.38;29.42;;;-5.60;99.90;;;;;;12327572;28;20050;-80
2024/01/10 19:11:04;;;;;;;46.92;34.38;;;-5.40;99.90;;;;;;12326937;28;20102;-78
2024/01/10 19:17:07;;;;;;;39.97;34.30;;;-5.30;99.90;;;;;;12331524;28;20054;-80
2024/01/10 19:23:11;;;;;;;41.83;31.98;;;-5.10;99.90;;;;;;12375861;28;20051;-80
2024/01/10 19:29:13;;;;;;;;;;;-5.10;99.90;;;;;;12358241;28;20610;-80
2024/01/10 19:35:15;;;;;;;46.47;37.38;;;-4.90;99.90;;;;;;12374993;28;19913;-80
2024/01/10 19:41:21;;;;;;;47.00;41.83;;;-5.10;99.90;;;;;;12369238;28;20031;-80
2024/01/10 19:47:23;;;;;;;48.80;43.67;;;-5.20;99.90;;;;;;12379767;28;20073;-79
2024/01/10 19:53:25;;;;;;;50.80;45.30;;;-5.30;99.90;;;;;;12364110;28;20045;-80
2024/01/10 19:59:27;;;;;;;50.42;45.47;;;-5.40;99.90;;;;;;12381322;28;20141;-79
2024/01/10 20:05:30;;;;;;;50.67;45.28;;;-5.60;99.90;;;;;;12362784;28;20053;-80
2024/01/10 20:11:32;;;;;;;46.67;41.80;;;-5.70;99.90;;;;;;12336917;28;20141;-81
2024/01/10 20:17:34;;;;;;;49.45;39.60;;;-5.60;99.90;;;;;;12324927;28;20065;-79
2024/01/10 20:23:36;;;;;;;46.30;36.88;;;-5.30;99.90;;;;;;12369468;28;20396;-80
2024/01/10 20:29:40;;;;;;;49.03;44.05;;;-5.20;99.90;;;;;;12316871;28;20053;-80
2024/01/10 20:35:42;;;;;;;54.00;46.23;;;-5.30;99.90;;;;;;12319279;28;20130;-79
2024/01/10 20:41:45;;;;;;;52.28;46.65;;;-5.40;99.90;;;;;;12325891;28;20053;-79
2024/01/10 20:47:47;;;;;;;53.20;47.58;;;-5.40;99.90;;;;;;12329408;28;20051;-79
2024/01/10 20:53:49;;;;;;;54.95;49.75;;;-5.60;99.90;;;;;;12314315;28;20055;-79
2024/01/10 20:59:53;;;;;;;51.88;46.22;;;-5.70;99.90;;;;;;12355334;28;20055;-79
2024/01/10 21:05:56;;;;;;;54.45;47.88;;;-5.60;99.90;;;;;;12318513;28;20050;-80
2024/01/10 21:11:59;;;;;;;49.53;44.10;;;-5.50;99.90;;;;;;12338617;28;20050;-80
2024/01/10 21:18:01;;;;;;;50.55;44.97;;;-5.40;99.90;;;;;;12310266;28;20051;-80
2024/01/10 21:24:04;;;;;;;47.40;42.30;;;-5.50;99.90;;;;;;12321669;28;20138;-80
2024/01/10 21:30:06;;;;;;;47.22;42.17;;;-5.40;99.90;;;;;;12312992;28;20050;-79
2024/01/10 21:36:08;;;;;;;52.92;44.28;;;-5.40;99.90;;;;;;12309161;28;20047;-80
2024/01/10 21:42:10;;;;;;;49.25;43.97;;;-5.40;99.90;;;;;;12313852;28;20051;-79
2024/01/10 21:48:12;;;;;;;49.05;43.78;;;-5.20;99.90;;;;;;12297438;28;20055;-79
2024/01/10 21:54:15;;;;;;;45.63;40.17;;;-5.30;99.90;;;;;;12306676;28;20101;-80
2024/01/10 22:00:18;;;;;;;47.88;41.20;;;-5.10;99.90;;;;;;12309439;28;20047;-80
2024/01/10 22:06:20;;;;;;;49.28;44.08;;;-5.10;99.90;;;;;;12312075;28;20055;-81
2024/01/10 22:12:25;;;;;;;49.90;44.83;;;-5.10;99.90;;;;;;12361662;28;20050;-80
2024/01/10 22:18:26;;;;;;;47.30;42.88;;;-5.30;99.90;;;;;;12334682;28;20409;-80
2024/01/10 22:24:29;;;;;;;49.28;44.35;;;-5.40;99.90;;;;;;12324498;28;20134;-80
2024/01/10 22:30:31;;;;;;;52.40;47.45;;;-5.50;99.90;;;;;;12318679;28;20047;-81
2024/01/10 22:36:33;;;;;;;48.13;43.22;;;-5.60;99.90;;;;;;12328331;28;20059;-79
2024/01/10 22:42:36;;;;;;;53.30;47.72;;;-5.60;99.90;;;;;;12324651;28;20055;-79
2024/01/10 22:48:38;;;;;;;53.20;47.33;;;-5.60;99.90;;;;;;12315100;28;20066;-80
2024/01/10 22:54:41;;;;;;;52.50;47.38;;;-5.60;99.90;;;;;;12302614;28;20093;-79
2024/01/10 23:00:43;;;;;;;58.85;53.20;;;-5.70;99.90;;;;;;12315762;28;20047;-80
2024/01/10 23:06:45;;;;;;;56.28;50.75;;;-5.80;99.90;;;;;;12338063;28;20055;-80
2024/01/10 23:12:47;;;;;;;53.08;47.92;;;-5.90;99.90;;;;;;12312573;28;20050;-81
2024/01/10 23:18:50;;;;;;;55.03;49.50;;;-6.00;99.90;;;;;;12326979;28;20479;-80
2024/01/10 23:24:52;;;;;;;51.63;46.42;;;-6.10;99.90;;;;;;12318035;28;20078;-80
2024/01/10 23:30:54;;;;;;;56.08;50.58;;;-6.00;99.90;;;;;;12313578;28;20050;-80
2024/01/10 23:36:56;;;;;;;54.50;49.40;;;-6.00;99.90;;;;;;12316754;28;20096;-80
2024/01/10 23:42:58;;;;;;;54.50;49.13;;;-6.10;99.90;;;;;;12333390;28;20051;-81
2024/01/10 23:49:11;;;;;;;45.63;41.13;;;-6.20;99.90;;;;;;12318192;28;20104;-80
2024/01/10 23:55:13;;;;;;;48.63;44.08;;;-6.00;99.90;;;;;;12323856;28;20059;-80
